createdAt,value
2019-03-22T00:01:46.780Z,5.50
2019-03-22T00:03:51.471Z,5.60
2019-03-22T00:05:56.071Z,5.60
2019-03-22T00:08:00.391Z,5.60
2019-03-22T00:10:06.119Z,5.60
2019-03-22T00:12:10.542Z,5.50
2019-03-22T00:14:15.799Z,5.50
2019-03-22T00:16:20.290Z,5.50
2019-03-22T00:18:24.614Z,5.40
2019-03-22T00:20:29.014Z,5.40
2019-03-22T00:22:33.357Z,5.30
2019-03-22T00:24:37.683Z,5.20
2019-03-22T00:26:42.047Z,5.10
2019-03-22T00:28:47.116Z,5.10
2019-03-22T00:30:51.494Z,5.00
2019-03-22T00:32:55.991Z,5.00
2019-03-22T00:35:00.543Z,5.00
2019-03-22T00:37:04.862Z,5.00
2019-03-22T00:39:09.199Z,5.00
2019-03-22T00:41:13.534Z,5.00
2019-03-22T00:43:18.336Z,5.00
2019-03-22T00:45:22.659Z,5.00
2019-03-22T00:47:26.987Z,5.00
2019-03-22T00:49:31.355Z,5.00
2019-03-22T00:51:35.671Z,5.00
2019-03-22T00:53:40.046Z,4.90
2019-03-22T00:55:44.443Z,4.90
2019-03-22T00:57:49.484Z,4.90
2019-03-22T00:59:53.816Z,4.90
2019-03-22T01:01:58.211Z,4.90
2019-03-22T01:04:02.617Z,4.90
2019-03-22T01:06:07.187Z,4.90
2019-03-22T01:08:11.531Z,4.90
2019-03-22T01:10:16.419Z,4.90
2019-03-22T01:12:21.331Z,4.90
2019-03-22T01:14:25.724Z,5.00
2019-03-22T01:16:30.036Z,5.00
2019-03-22T01:18:34.463Z,4.90
2019-03-22T01:20:38.791Z,4.90
2019-03-22T01:22:44.023Z,4.80
2019-03-22T01:24:49.135Z,4.80
2019-03-22T01:26:53.467Z,4.70
2019-03-22T01:28:58.429Z,4.70
2019-03-22T01:31:02.763Z,4.70
2019-03-22T01:33:07.082Z,4.60
2019-03-22T01:35:11.679Z,4.70
2019-03-22T01:37:16.631Z,4.60
2019-03-22T01:39:21.151Z,4.60
2019-03-22T01:41:25.477Z,4.60
2019-03-22T01:43:29.811Z,4.60
2019-03-22T01:45:34.131Z,4.50
2019-03-22T01:47:38.723Z,4.50
2019-03-22T01:49:43.059Z,4.50
2019-03-22T01:51:48.323Z,4.40
2019-03-22T01:53:52.650Z,4.50
2019-03-22T01:55:56.983Z,4.40
2019-03-22T01:58:01.419Z,4.40
2019-03-22T02:00:06.890Z,4.40
2019-03-22T02:02:11.575Z,4.30
2019-03-22T02:04:16.754Z,4.30
2019-03-22T02:06:21.208Z,4.30
2019-03-22T02:08:25.547Z,4.20
2019-03-22T02:10:29.868Z,4.20
2019-03-22T02:12:34.575Z,4.20
2019-03-22T02:14:38.923Z,4.20
2019-03-22T02:16:43.238Z,4.20
2019-03-22T02:18:48.590Z,4.20
2019-03-22T02:20:52.939Z,4.20
2019-03-22T02:22:57.395Z,4.20
2019-03-22T02:25:01.707Z,4.20
2019-03-22T02:27:06.188Z,4.10
2019-03-22T02:29:10.911Z,4.20
2019-03-22T02:31:15.239Z,4.20
2019-03-22T02:33:20.036Z,4.10
2019-03-22T02:35:29.202Z,4.10
2019-03-22T02:37:30.458Z,4.10
2019-03-22T02:39:34.899Z,4.00
2019-03-22T02:41:39.512Z,4.00
2019-03-22T02:43:43.904Z,4.00
2019-03-22T02:45:48.671Z,3.90
2019-03-22T02:47:53.014Z,3.80
2019-03-22T02:49:57.371Z,4.00
2019-03-22T02:52:01.871Z,4.00
2019-03-22T02:54:06.280Z,4.10
2019-03-22T02:56:10.762Z,4.00
2019-03-22T02:58:20.984Z,4.00
2019-03-22T03:00:21.648Z,4.00
2019-03-22T03:02:26.122Z,4.00
2019-03-22T03:04:30.468Z,4.00
2019-03-22T03:06:34.788Z,3.90
2019-03-22T03:08:39.191Z,3.90
2019-03-22T03:10:43.535Z,4.00
2019-03-22T03:12:48.614Z,4.00
2019-03-22T03:14:53.039Z,4.00
2019-03-22T03:16:57.380Z,4.00
2019-03-22T03:19:01.756Z,4.10
2019-03-22T03:21:06.238Z,4.00
2019-03-22T03:23:10.581Z,3.90
2019-03-22T03:25:15.478Z,3.90
2019-03-22T03:27:20.692Z,3.90
2019-03-22T03:29:25.049Z,3.80
2019-03-22T03:31:29.837Z,3.90
2019-03-22T03:33:34.175Z,3.80
2019-03-22T03:35:38.643Z,3.80
2019-03-22T03:37:42.973Z,3.80
2019-03-22T03:39:47.910Z,3.70
2019-03-22T03:41:52.675Z,3.80
2019-03-22T03:43:57.083Z,3.70
2019-03-22T03:46:01.488Z,3.70
2019-03-22T03:48:07.876Z,3.60
2019-03-22T03:50:12.596Z,3.60
2019-03-22T03:52:17.695Z,3.50
2019-03-22T03:54:22.239Z,3.60
2019-03-22T03:56:26.569Z,3.50
2019-03-22T03:58:30.900Z,3.50
2019-03-22T04:00:35.414Z,3.50
2019-03-22T04:02:39.812Z,3.40
2019-03-22T04:04:44.208Z,3.40
2019-03-22T04:06:49.363Z,3.30
2019-03-22T04:08:53.785Z,3.20
2019-03-22T04:10:58.174Z,3.20
2019-03-22T04:13:02.515Z,3.20
2019-03-22T04:15:07.177Z,3.10
2019-03-22T04:17:11.574Z,3.10
2019-03-22T04:19:17.219Z,3.10
2019-03-22T04:21:21.609Z,3.10
2019-03-22T04:23:25.943Z,3.00
2019-03-22T04:25:30.279Z,3.00
2019-03-22T04:27:34.687Z,3.20
2019-03-22T04:29:39.014Z,3.20
2019-03-22T04:31:43.649Z,3.10
2019-03-22T04:33:49.061Z,3.10
2019-03-22T04:35:53.520Z,3.10
2019-03-22T04:37:57.884Z,3.20
2019-03-22T04:40:02.300Z,3.20
2019-03-22T04:42:06.706Z,3.20
2019-03-22T04:44:11.193Z,3.30
2019-03-22T04:46:15.971Z,3.30
2019-03-22T04:48:25.878Z,3.40
2019-03-22T04:50:32.059Z,3.40
2019-03-22T04:52:36.622Z,3.40
2019-03-22T04:54:43.487Z,3.30
2019-03-22T04:56:49.838Z,3.20
2019-03-22T04:58:55.344Z,3.20
2019-03-22T05:01:00.934Z,3.10
2019-03-22T05:03:06.448Z,3.10
2019-03-22T05:05:13.026Z,3.10
2019-03-22T05:07:19.027Z,3.00
2019-03-22T05:09:27.072Z,3.00
2019-03-22T05:11:31.654Z,2.90
2019-03-22T05:13:38.094Z,2.90
2019-03-22T05:15:43.399Z,2.90
2019-03-22T05:17:49.426Z,2.90
2019-03-22T05:19:56.670Z,2.90
2019-03-22T05:22:02.693Z,3.00
2019-03-22T05:24:07.990Z,3.00
2019-03-22T05:26:14.505Z,3.00
2019-03-22T05:28:19.955Z,3.00
2019-03-22T05:31:03.508Z,3.00
2019-03-22T05:33:08.358Z,3.00
2019-03-22T05:35:12.781Z,2.90
2019-03-22T05:37:17.254Z,3.00
2019-03-22T05:39:21.846Z,3.00
2019-03-22T05:41:45.140Z,3.00
2019-03-22T05:43:50.255Z,3.00
2019-03-22T05:45:54.590Z,3.10
2019-03-22T05:47:58.918Z,3.10
2019-03-22T05:50:03.323Z,3.10
2019-03-22T05:52:07.998Z,3.10
2019-03-22T05:54:12.410Z,3.10
2019-03-22T05:56:16.787Z,3.10
2019-03-22T05:58:22.061Z,3.10
2019-03-22T06:00:26.623Z,3.20
2019-03-22T06:02:30.956Z,3.20
2019-03-22T06:04:35.347Z,3.30
2019-03-22T06:06:39.695Z,3.30
2019-03-22T06:08:44.024Z,3.30
2019-03-22T06:10:49.175Z,3.40
2019-03-22T06:12:53.672Z,3.40
2019-03-22T06:14:57.994Z,3.40
2019-03-22T06:17:02.333Z,3.50
2019-03-22T06:19:06.766Z,3.60
2019-03-22T06:21:11.246Z,3.60
2019-03-22T06:23:15.650Z,3.70
2019-03-22T06:25:20.628Z,3.80
2019-03-22T06:27:25.347Z,3.80
2019-03-22T06:29:29.757Z,3.90
2019-03-22T06:31:34.183Z,4.10
2019-03-22T06:33:38.586Z,4.20
2019-03-22T06:35:43.292Z,4.40
2019-03-22T06:37:48.035Z,4.50
2019-03-22T06:39:53.116Z,4.50
2019-03-22T06:41:57.527Z,4.60
2019-03-22T06:44:02.063Z,4.50
2019-03-22T06:46:06.794Z,4.50
2019-03-22T06:48:11.227Z,4.50
2019-03-22T06:50:15.998Z,4.40
2019-03-22T06:52:21.462Z,4.30
2019-03-22T06:54:31.408Z,4.20
2019-03-22T06:56:31.999Z,4.30
2019-03-22T06:58:36.334Z,4.30
2019-03-22T07:00:40.666Z,4.30
2019-03-22T07:02:45.122Z,4.30
2019-03-22T07:04:49.682Z,4.30
2019-03-22T07:06:54.027Z,4.30
2019-03-22T07:08:58.542Z,4.30
2019-03-22T07:11:02.954Z,4.30
2019-03-22T07:13:07.293Z,4.30
2019-03-22T07:15:11.804Z,4.40
2019-03-22T07:17:16.250Z,4.50
2019-03-22T07:19:21.014Z,4.60
2019-03-22T07:21:25.350Z,4.70
2019-03-22T07:23:29.755Z,4.80
2019-03-22T07:25:34.147Z,5.00
2019-03-22T07:27:38.858Z,5.10
2019-03-22T07:29:43.211Z,5.20
2019-03-22T07:31:47.625Z,5.20
2019-03-22T07:33:52.672Z,5.30
2019-03-22T07:35:57.021Z,5.40
2019-03-22T07:38:01.820Z,5.50
2019-03-22T07:40:07.236Z,5.60
2019-03-22T07:42:11.571Z,5.70
2019-03-22T07:44:15.944Z,5.90
2019-03-22T07:46:39.300Z,6.00
2019-03-22T07:48:43.715Z,6.10
2019-03-22T07:50:48.072Z,6.30
2019-03-22T07:52:52.920Z,6.50
2019-03-22T07:54:57.339Z,6.50
2019-03-22T07:57:02.043Z,6.60
2019-03-22T07:59:09.556Z,6.70
2019-03-22T08:01:12.999Z,6.80
2019-03-22T08:03:17.322Z,6.90
2019-03-22T08:05:22.551Z,6.90
2019-03-22T08:07:26.910Z,7.00
2019-03-22T08:09:31.315Z,7.10
2019-03-22T08:11:35.720Z,7.20
2019-03-22T08:13:40.211Z,7.20
2019-03-22T08:15:44.812Z,7.30
2019-03-22T08:17:49.707Z,7.30
2019-03-22T08:19:57.066Z,7.30
2019-03-22T08:22:00.351Z,7.40
2019-03-22T08:24:04.826Z,7.50
2019-03-22T08:26:28.156Z,7.60
2019-03-22T08:28:32.601Z,7.70
2019-03-22T08:30:42.851Z,7.90
2019-03-22T08:32:43.527Z,8.00
2019-03-22T08:34:48.108Z,8.10
2019-03-22T08:36:54.001Z,8.20
2019-03-22T08:38:58.400Z,8.40
2019-03-22T08:41:02.746Z,8.50
2019-03-22T08:43:07.215Z,8.70
2019-03-22T08:45:11.862Z,8.80
2019-03-22T08:47:16.277Z,8.90
2019-03-22T08:49:21.984Z,9.00
2019-03-22T08:51:29.665Z,9.10
2019-03-22T08:53:32.829Z,9.20
2019-03-22T08:55:37.436Z,9.40
2019-03-22T08:57:41.833Z,9.50
2019-03-22T08:59:46.172Z,9.70
2019-03-22T09:01:51.592Z,9.90
2019-03-22T09:03:55.917Z,10.00
2019-03-22T09:06:00.339Z,10.20
2019-03-22T09:08:04.762Z,10.30
2019-03-22T09:10:09.551Z,10.30
2019-03-22T09:12:13.982Z,10.40
2019-03-22T09:14:18.376Z,10.50
2019-03-22T09:16:23.673Z,10.30
2019-03-22T09:18:28.146Z,10.30
2019-03-22T09:20:32.986Z,10.40
2019-03-22T09:22:37.393Z,10.50
2019-03-22T09:24:41.727Z,10.70
2019-03-22T09:26:47.857Z,11.00
2019-03-22T09:28:53.049Z,11.00
2019-03-22T09:31:09.824Z,11.00
2019-03-22T09:33:03.940Z,11.10
2019-03-22T09:35:08.529Z,11.30
2019-03-22T09:37:12.862Z,11.60
2019-03-22T09:39:17.890Z,11.90
2019-03-22T09:41:22.805Z,12.20
2019-03-22T09:43:27.172Z,12.40
2019-03-22T09:45:31.539Z,12.60
2019-03-22T09:47:35.982Z,12.90
2019-03-22T09:49:40.438Z,13.20
2019-03-22T09:51:44.838Z,13.60
2019-03-22T09:53:49.270Z,13.90
2019-03-22T09:55:54.096Z,14.20
2019-03-22T09:57:58.792Z,14.50
2019-03-22T10:00:03.438Z,14.70
2019-03-22T10:02:07.873Z,15.00
2019-03-22T10:04:12.255Z,15.40
2019-03-22T10:06:16.691Z,15.70
2019-03-22T10:08:28.751Z,16.10
2019-03-22T10:10:33.098Z,16.60
2019-03-22T10:12:37.597Z,17.00
2019-03-22T10:14:41.927Z,17.10
2019-03-22T10:16:47.578Z,17.40
2019-03-22T10:18:53.316Z,18.10
2019-03-22T10:20:57.639Z,18.90
2019-03-22T10:23:01.998Z,19.20
2019-03-22T10:25:09.693Z,19.30
2019-03-22T10:27:14.436Z,19.50
2019-03-22T10:29:19.246Z,19.70
2019-03-22T10:31:36.453Z,20.00
2019-03-22T10:33:30.585Z,20.00
2019-03-22T10:35:34.955Z,20.00
2019-03-22T10:37:39.450Z,20.20
2019-03-22T10:39:44.062Z,20.90
2019-03-22T10:41:48.565Z,21.70
2019-03-22T10:43:53.735Z,22.60
2019-03-22T10:45:58.053Z,23.70
2019-03-22T10:48:02.746Z,24.50
2019-03-22T10:50:07.594Z,25.60
2019-03-22T10:52:12.079Z,26.10
2019-03-22T10:54:16.443Z,26.40
2019-03-22T10:56:24.736Z,27.50
2019-03-22T10:58:27.655Z,28.20
2019-03-22T11:00:31.999Z,28.70
2019-03-22T11:02:36.416Z,28.90
2019-03-22T11:04:41.030Z,28.90
2019-03-22T11:06:45.380Z,28.50
2019-03-22T11:08:49.903Z,28.50
2019-03-22T11:10:54.903Z,27.70
2019-03-22T11:12:59.426Z,27.90
2019-03-22T11:15:04.190Z,28.80
2019-03-22T11:17:08.675Z,28.60
2019-03-22T11:19:13.389Z,26.50
2019-03-22T11:21:17.863Z,26.10
2019-03-22T11:23:22.806Z,27.30
2019-03-22T11:25:27.155Z,28.60
2019-03-22T11:27:31.635Z,29.80
2019-03-22T11:29:36.021Z,30.40
2019-03-22T11:31:40.478Z,31.30
2019-03-22T11:33:44.983Z,31.10
2019-03-22T11:35:49.486Z,30.60
2019-03-22T11:37:54.891Z,29.80
2019-03-22T11:39:59.531Z,30.00
2019-03-22T11:42:03.954Z,30.00
2019-03-22T11:44:08.407Z,30.30
2019-03-22T11:46:12.779Z,31.50
2019-03-22T11:48:17.197Z,31.50
2019-03-22T11:50:22.838Z,30.60
2019-03-22T11:52:27.275Z,28.30
2019-03-22T11:54:31.638Z,26.60
2019-03-22T11:56:36.139Z,25.50
2019-03-22T11:58:40.540Z,24.30
2019-03-22T12:00:44.937Z,24.20
2019-03-22T12:02:49.442Z,25.30
2019-03-22T12:04:54.545Z,26.20
2019-03-22T12:06:58.875Z,24.70
2019-03-22T12:09:04.268Z,25.00
2019-03-22T12:11:08.707Z,25.40
2019-03-22T12:13:13.122Z,27.00
2019-03-22T12:15:18.126Z,28.00
2019-03-22T12:17:23.089Z,27.00
2019-03-22T12:19:27.557Z,25.00
2019-03-22T12:21:31.904Z,24.80
2019-03-22T12:23:36.230Z,24.80
2019-03-22T12:25:40.887Z,24.60
2019-03-22T12:27:45.234Z,23.80
2019-03-22T12:29:49.619Z,24.80
2019-03-22T12:31:54.698Z,27.40
2019-03-22T12:33:59.067Z,30.50
2019-03-22T12:36:03.740Z,32.50
2019-03-22T12:38:08.363Z,31.70
2019-03-22T12:40:13.893Z,31.40
2019-03-22T12:42:18.303Z,31.70
2019-03-22T12:44:32.348Z,32.90
2019-03-22T12:46:37.370Z,31.90
2019-03-22T12:48:41.819Z,31.60
2019-03-22T12:50:46.235Z,33.20
2019-03-22T12:52:50.686Z,34.40
2019-03-22T12:54:55.535Z,35.80
2019-03-22T12:57:00.872Z,36.20
2019-03-22T12:59:05.669Z,36.80
2019-03-22T13:01:10.363Z,34.60
2019-03-22T13:03:14.823Z,34.20
2019-03-22T13:05:19.760Z,32.80
2019-03-22T13:07:24.871Z,33.80
2019-03-22T13:09:29.208Z,35.20
2019-03-22T13:11:33.567Z,36.70
2019-03-22T13:13:37.939Z,36.30
2019-03-22T13:15:42.258Z,35.60
2019-03-22T13:17:46.684Z,34.60
2019-03-22T13:19:51.218Z,36.50
2019-03-22T13:21:57.207Z,37.30
2019-03-22T13:24:02.014Z,38.40
2019-03-22T13:26:06.350Z,39.70
2019-03-22T13:28:10.679Z,39.90
2019-03-22T13:30:21.744Z,39.80
2019-03-22T13:32:26.509Z,40.10
2019-03-22T13:34:30.823Z,39.70
2019-03-22T13:36:35.211Z,39.00
2019-03-22T13:38:39.601Z,37.60
2019-03-22T13:40:44.131Z,36.70
2019-03-22T13:42:48.946Z,35.70
2019-03-22T13:44:54.338Z,35.20
2019-03-22T13:46:58.778Z,35.00
2019-03-22T13:49:03.131Z,35.30
2019-03-22T13:51:07.551Z,35.00
2019-03-22T13:53:11.994Z,34.10
2019-03-22T13:55:16.374Z,32.30
2019-03-22T13:57:20.793Z,31.00
2019-03-22T13:59:25.627Z,29.50
2019-03-22T14:01:30.018Z,28.90
2019-03-22T14:03:34.367Z,28.30
2019-03-22T14:05:38.717Z,27.70
2019-03-22T14:07:43.092Z,27.30
2019-03-22T14:09:47.504Z,26.30
2019-03-22T14:11:52.097Z,25.40
2019-03-22T14:13:56.691Z,25.10
2019-03-22T14:16:01.096Z,25.10
2019-03-22T14:18:05.729Z,25.40
2019-03-22T14:20:11.429Z,25.80
2019-03-22T14:22:16.224Z,24.60
2019-03-22T14:24:20.559Z,23.70
2019-03-22T14:26:25.785Z,23.90
2019-03-22T14:28:30.190Z,24.30
2019-03-22T14:30:34.680Z,24.70
2019-03-22T14:32:39.109Z,24.60
2019-03-22T14:34:43.478Z,24.90
2019-03-22T14:36:47.818Z,25.10
2019-03-22T14:38:53.073Z,24.80
2019-03-22T14:40:57.951Z,24.70
2019-03-22T14:43:02.332Z,24.50
2019-03-22T14:45:06.963Z,23.90
2019-03-22T14:47:13.016Z,23.80
2019-03-22T14:49:17.596Z,23.70
2019-03-22T14:51:22.276Z,23.20
2019-03-22T14:53:27.119Z,22.60
2019-03-22T14:55:31.586Z,22.80
2019-03-22T14:57:36.014Z,22.50
2019-03-22T14:59:40.491Z,22.00
2019-03-22T15:01:45.462Z,22.00
2019-03-22T15:03:52.536Z,22.50
2019-03-22T15:05:57.583Z,22.90
2019-03-22T15:08:01.919Z,23.20
2019-03-22T15:10:07.083Z,23.30
2019-03-22T15:12:11.657Z,23.50
2019-03-22T15:14:34.054Z,22.90
2019-03-22T15:16:57.682Z,22.80
2019-03-22T15:19:15.694Z,22.70
2019-03-22T15:21:57.390Z,22.30
2019-03-22T15:24:24.126Z,22.30
2019-03-22T15:27:03.892Z,22.90
2019-03-22T15:29:37.113Z,23.40
2019-03-22T15:32:06.616Z,23.50
2019-03-22T15:34:35.999Z,22.90
2019-03-22T15:37:02.515Z,22.40
2019-03-22T15:39:44.279Z,22.30
2019-03-22T15:41:49.218Z,22.20
2019-03-22T15:43:54.040Z,22.60
2019-03-22T15:45:58.683Z,22.20
2019-03-22T15:48:03.101Z,22.30
2019-03-22T15:50:08.908Z,22.60
2019-03-22T15:52:13.328Z,22.50
2019-03-22T15:54:17.744Z,22.10
2019-03-22T15:56:22.475Z,22.70
2019-03-22T15:58:27.166Z,23.00
2019-03-22T16:00:31.658Z,23.90
2019-03-22T16:02:36.439Z,24.50
2019-03-22T16:04:41.019Z,24.90
2019-03-22T16:06:45.507Z,25.50
2019-03-22T16:08:49.940Z,25.80
2019-03-22T16:10:54.826Z,26.50
2019-03-22T16:12:59.316Z,26.40
2019-03-22T16:15:04.367Z,25.90
2019-03-22T16:17:08.706Z,24.60
2019-03-22T16:19:15.959Z,22.80
2019-03-22T16:21:20.392Z,22.50
2019-03-22T16:23:25.086Z,22.20
2019-03-22T16:25:29.579Z,23.30
2019-03-22T16:27:33.955Z,24.40
2019-03-22T16:29:38.367Z,25.50
2019-03-22T16:31:42.896Z,26.20
2019-03-22T16:33:54.345Z,27.40
2019-03-22T16:35:53.988Z,28.30
2019-03-22T16:37:58.571Z,28.20
2019-03-22T16:40:04.686Z,27.70
2019-03-22T16:42:09.655Z,26.70
2019-03-22T16:44:14.154Z,27.30
2019-03-22T16:46:18.583Z,27.00
2019-03-22T16:48:23.383Z,27.30
2019-03-22T16:50:28.082Z,26.90
2019-03-22T16:52:32.436Z,25.90
2019-03-22T16:54:36.771Z,25.10
2019-03-22T16:56:41.207Z,24.00
2019-03-22T16:58:45.567Z,23.90
2019-03-22T17:00:50.162Z,23.30
2019-03-22T17:02:55.054Z,23.00
2019-03-22T17:04:59.480Z,22.80
2019-03-22T17:07:03.991Z,22.30
2019-03-22T17:09:08.566Z,21.80
2019-03-22T17:11:13.028Z,21.10
2019-03-22T17:13:17.911Z,20.50
2019-03-22T17:15:22.263Z,20.10
2019-03-22T17:17:27.386Z,19.70
2019-03-22T17:19:31.778Z,19.40
2019-03-22T17:21:36.238Z,19.00
2019-03-22T17:23:40.601Z,18.80
2019-03-22T17:25:45.041Z,18.40
2019-03-22T17:27:49.399Z,18.10
2019-03-22T17:29:54.314Z,17.80
2019-03-22T17:31:58.803Z,17.70
2019-03-22T17:34:03.332Z,17.50
2019-03-22T17:36:07.775Z,17.40
2019-03-22T17:38:12.251Z,17.30
2019-03-22T17:40:16.877Z,17.20
2019-03-22T17:42:22.013Z,17.10
2019-03-22T17:44:26.827Z,16.90
2019-03-22T17:46:31.275Z,16.80
2019-03-22T17:48:35.642Z,16.70
2019-03-22T17:50:40.378Z,16.60
2019-03-22T17:52:44.802Z,16.50
2019-03-22T17:54:49.255Z,16.40
2019-03-22T17:56:54.079Z,16.30
2019-03-22T17:58:58.788Z,16.20
2019-03-22T18:01:03.254Z,16.00
2019-03-22T18:03:08.259Z,15.90
2019-03-22T18:05:12.956Z,15.80
2019-03-22T18:07:17.323Z,15.70
2019-03-22T18:09:21.683Z,15.60
2019-03-22T18:11:26.582Z,15.50
2019-03-22T18:13:31.103Z,15.40
2019-03-22T18:15:35.440Z,15.30
2019-03-22T18:17:39.863Z,15.30
2019-03-22T18:19:44.324Z,15.20
2019-03-22T18:21:48.731Z,15.10
2019-03-22T18:23:53.100Z,14.90
2019-03-22T18:25:58.072Z,14.90
2019-03-22T18:28:02.471Z,14.80
2019-03-22T18:30:07.887Z,14.70
2019-03-22T18:32:12.322Z,14.60
2019-03-22T18:34:16.769Z,14.40
2019-03-22T18:36:21.194Z,14.30
2019-03-22T18:38:25.960Z,14.20
2019-03-22T18:40:30.370Z,14.00
2019-03-22T18:42:35.287Z,14.00
2019-03-22T18:44:39.731Z,13.80
2019-03-22T18:46:44.232Z,13.70
2019-03-22T18:48:48.644Z,13.50
2019-03-22T18:50:56.976Z,13.50
2019-03-22T18:52:59.347Z,13.30
2019-03-22T18:55:04.047Z,13.30
2019-03-22T18:57:08.484Z,13.10
2019-03-22T18:59:12.928Z,13.00
2019-03-22T19:01:17.343Z,13.00
2019-03-22T19:03:21.903Z,13.00
2019-03-22T19:05:26.633Z,12.90
2019-03-22T19:07:31.050Z,12.80
2019-03-22T19:09:35.754Z,12.70
2019-03-22T19:11:40.115Z,12.60
2019-03-22T19:13:44.451Z,12.50
2019-03-22T19:15:49.004Z,12.50
2019-03-22T19:17:53.436Z,12.40
2019-03-22T19:19:58.342Z,12.30
2019-03-22T19:22:02.720Z,12.30
2019-03-22T19:24:07.094Z,12.30
2019-03-22T19:26:11.570Z,12.20
2019-03-22T19:28:15.992Z,12.00
2019-03-22T19:30:20.501Z,11.90
2019-03-22T19:32:25.051Z,11.90
2019-03-22T19:34:29.581Z,11.80
2019-03-22T19:36:34.271Z,11.70
2019-03-22T19:38:38.607Z,11.60
2019-03-22T19:40:43.037Z,11.60
2019-03-22T19:42:49.624Z,11.60
2019-03-22T19:44:54.921Z,11.50
2019-03-22T19:47:00.655Z,11.50
2019-03-22T19:49:05.358Z,11.40
2019-03-22T19:51:09.715Z,11.30
2019-03-22T19:53:14.151Z,11.20
2019-03-22T19:55:18.767Z,11.10
2019-03-22T19:57:23.331Z,11.00
2019-03-22T19:59:29.227Z,10.90
2019-03-22T20:01:33.575Z,10.80
2019-03-22T20:03:38.166Z,10.70
2019-03-22T20:05:42.739Z,10.70
2019-03-22T20:07:47.072Z,10.70
2019-03-22T20:09:51.643Z,10.70
2019-03-22T20:11:56.242Z,10.70
2019-03-22T20:14:00.716Z,10.50
2019-03-22T20:16:05.371Z,10.50
2019-03-22T20:18:09.815Z,10.40
2019-03-22T20:20:14.547Z,10.50
2019-03-22T20:22:18.891Z,10.50
2019-03-22T20:24:23.255Z,10.40
2019-03-22T20:26:28.778Z,10.30
2019-03-22T20:28:33.312Z,10.30
2019-03-22T20:30:37.918Z,10.30
2019-03-22T20:32:42.514Z,10.30
2019-03-22T20:34:47.017Z,10.20
2019-03-22T20:36:51.584Z,10.10
2019-03-22T20:38:56.278Z,10.00
2019-03-22T20:41:00.832Z,9.90
2019-03-22T20:43:06.780Z,9.80
2019-03-22T20:45:11.465Z,9.80
2019-03-22T20:47:15.807Z,9.80
2019-03-22T20:49:20.491Z,9.70
2019-03-22T20:51:24.916Z,9.70
2019-03-22T20:53:32.538Z,9.70
2019-03-22T20:55:36.920Z,9.70
2019-03-22T20:57:41.487Z,9.60
2019-03-22T20:59:45.830Z,9.50
2019-03-22T21:01:50.299Z,9.40
2019-03-22T21:03:54.639Z,9.30
2019-03-22T21:05:59.334Z,9.20
2019-03-22T21:08:03.779Z,9.20
2019-03-22T21:10:08.845Z,9.10
2019-03-22T21:12:13.399Z,9.10
2019-03-22T21:14:17.814Z,9.00
2019-03-22T21:16:22.247Z,8.90
2019-03-22T21:18:27.028Z,8.90
2019-03-22T21:20:31.655Z,9.00
2019-03-22T21:22:36.215Z,9.00
2019-03-22T21:24:40.551Z,8.90
2019-03-22T21:26:45.047Z,8.90
2019-03-22T21:28:49.410Z,9.10
2019-03-22T21:30:53.759Z,9.10
2019-03-22T21:32:58.917Z,9.20
2019-03-22T21:35:03.318Z,9.10
2019-03-22T21:37:07.759Z,9.00
2019-03-22T21:39:12.275Z,8.90
2019-03-22T21:41:16.682Z,8.80
2019-03-22T21:43:22.107Z,8.70
2019-03-22T21:45:27.942Z,8.70
2019-03-22T21:47:32.526Z,8.70
2019-03-22T21:49:36.919Z,8.60
2019-03-22T21:51:41.278Z,8.60
2019-03-22T21:53:45.691Z,8.50
2019-03-22T21:55:50.042Z,8.50
2019-03-22T21:57:54.474Z,8.40
2019-03-22T21:59:59.130Z,8.30
2019-03-22T22:02:03.619Z,8.30
2019-03-22T22:04:08.364Z,8.40
2019-03-22T22:06:12.854Z,8.50
2019-03-22T22:08:17.395Z,8.60
2019-03-22T22:10:21.742Z,8.60
2019-03-22T22:12:26.248Z,8.60
2019-03-22T22:14:40.452Z,8.50
2019-03-22T22:16:37.122Z,8.40
2019-03-22T22:18:41.539Z,8.30
2019-03-22T22:20:45.939Z,8.30
2019-03-22T22:22:50.299Z,8.40
2019-03-22T22:24:54.631Z,8.40
2019-03-22T22:26:59.420Z,8.40
2019-03-22T22:29:03.887Z,8.30
2019-03-22T22:31:08.229Z,8.10
2019-03-22T22:33:12.630Z,7.90
2019-03-22T22:35:17.050Z,7.70
2019-03-22T22:37:21.694Z,7.70
2019-03-22T22:39:26.275Z,7.60
2019-03-22T22:41:31.127Z,7.50
2019-03-22T22:43:36.059Z,7.40
2019-03-22T22:45:40.404Z,7.30
2019-03-22T22:47:44.823Z,7.20
2019-03-22T22:49:49.159Z,7.20
2019-03-22T22:51:53.490Z,7.20
2019-03-22T22:53:58.228Z,7.30
2019-03-22T22:56:02.707Z,7.50
2019-03-22T22:58:07.121Z,7.50
2019-03-22T23:00:16.176Z,7.50
2019-03-22T23:02:20.683Z,7.50
2019-03-22T23:04:25.021Z,7.40
2019-03-22T23:06:29.863Z,7.30
2019-03-22T23:08:34.275Z,7.20
2019-03-22T23:10:38.633Z,7.10
2019-03-22T23:12:43.595Z,7.10
2019-03-22T23:14:47.923Z,7.20
2019-03-22T23:16:52.266Z,7.20
2019-03-22T23:18:57.098Z,7.20
2019-03-22T23:21:01.587Z,7.20
2019-03-22T23:23:06.087Z,7.20
2019-03-22T23:25:10.592Z,7.20
2019-03-22T23:27:15.155Z,7.10
2019-03-22T23:29:19.491Z,7.10
2019-03-22T23:31:23.834Z,7.10
2019-03-22T23:33:28.626Z,7.10
2019-03-22T23:35:33.122Z,7.10
2019-03-22T23:37:37.493Z,7.10
2019-03-22T23:39:41.877Z,7.00
2019-03-22T23:41:58.583Z,7.10
2019-03-22T23:44:03.403Z,7.20
2019-03-22T23:46:07.751Z,7.20
2019-03-22T23:48:12.146Z,7.20
2019-03-22T23:50:16.507Z,7.20
2019-03-22T23:52:20.830Z,7.30
2019-03-22T23:54:25.247Z,7.30
2019-03-22T23:56:30.267Z,7.30
2019-03-22T23:58:34.698Z,7.30
